Station: Clare  

  Atmospheric Gas Attenuation - ITU Rec 676-11   ----------------- dB/100km -----------------
Date Time Temp RH % AH g/m3 Dew Point Wind Direction Speed kph Gust kph Barometer mB Rainfall Since 9am 24GHz 47GHz 76GHz 122GHz 134GHz 241GHz
05/05 22:40 7.3 94 7.43 6.4 0 0 1024.7 0 17.4 26.3 38.7 101.3 91.4 313.1
05/05 22:30 7.4 94 7.48 6.5 0 0 1024.7 0 17.5 26.4 38.9 101.8 92.0 315.1
05/05 22:20 7.9 94 7.72 7 0 0 1024.9 0 18.0 26.6 39.7 103.8 94.8 324.8
05/05 22:10 8 94 7.77 7.1 0 0 1024.9 0 18.1 26.7 39.8 104.3 95.3 326.9
05/05 22:00 8.5 94 8.03 7.6 0 0 1024.9 0 18.6 27.0 40.7 106.5 98.4 337.5
05/05 21:50 8.5 94 8.03 7.6 0 0 1025.1 0 18.6 27.0 40.7 106.6 98.4 337.5
05/05 21:40 8.5 94 8.03 7.6 0 0 1025.1 0 18.6 27.0 40.7 106.6 98.4 337.5
05/05 21:30 8.6 94 8.08 7.7 0 0 1024.9 0 18.7 27.0 40.8 107.0 98.9 339.5
05/05 21:20 8.4 94 7.98 7.5 0 0 1025 0 18.5 26.9 40.5 106.1 97.8 335.5
05/05 21:10 8.5 93 7.94 7.4 0 0 1025 0 18.4 26.8 40.3 105.5 97.1 333.1
05/05 21:00 8.6 93 7.99 7.5 0 0 1024.9 0 18.5 26.9 40.4 105.9 97.7 335.1
05/05 20:50 8.8 92 8.01 7.6 0 0 1025.1 0 18.6 26.9 40.4 105.9 97.7 335.2
05/05 20:40 9 92 8.11 7.8 0 0 1025.2 0 18.8 27.0 40.8 106.8 98.9 339.3
05/05 20:30 9 92 8.11 7.8 0 0 1025.1 0 18.8 27.0 40.8 106.8 98.9 339.3
05/05 20:20 9.3 92 8.27 8.1 0 0 1025.1 0 19.1 27.1 41.3 108.2 100.7 345.8
05/05 20:10 9.2 92 8.22 8 0 0 1025.1 0 19.0 27.1 41.1 107.8 100.1 343.8
05/05 20:00 9.1 92 8.17 7.9 0 0 1025 0 18.9 27.0 41.0 107.3 99.6 341.7
05/05 19:50 9.1 92 8.17 7.9 0 0 1025 0 18.9 27.0 41.0 107.3 99.6 341.7
05/05 19:40 9 92 8.11 7.8 0 0 1025.1 0 18.8 27.0 40.8 106.8 98.9 339.3
05/05 19:30 9 92 8.11 7.8 0 0 1025 0 18.8 27.0 40.8 106.8 98.8 339.2
05/05 19:20 8.8 91 7.92 7.4 0 0 1025.1 0 18.4 26.7 40.1 104.9 96.5 330.9
05/05 19:10 8.7 90 7.79 7.2 0 0 1025 0 18.1 26.5 39.6 103.6 94.8 324.9
05/05 19:00 8.8 89 7.75 7.1 0 0 1024.8 0 18.0 26.4 39.3 103.0 94.1 322.5
05/05 18:50 9 89 7.85 7.3 0 0 1024.8 0 18.2 26.5 39.6 103.8 95.2 326.5
05/05 18:40 9.1 88 7.81 7.2 0 0 1024.7 0 18.1 26.4 39.4 103.2 94.5 324.2
05/05 18:30 9.5 87 7.92 7.4 0 0 1024.5 0 18.3 26.5 39.7 103.9 95.5 327.7
05/05 18:20 9.8 85 7.89 7.4 0 0 1024.4 0 18.2 26.3 39.4 103.2 94.7 325.0
05/05 18:10 10.2 83 7.9 7.4 0 0 1024.4 0 18.3 26.2 39.2 102.7 94.4 323.8
05/05 18:00 10.6 82 8.01 7.7 0 4 1024.3 0 18.5 26.3 39.5 103.4 95.4 327.4
05/05 17:50 11.1 80 8.06 7.8 2 6 1024.2 0 18.6 26.2 39.4 103.3 95.4 327.6
05/05 17:40 11.3 77 7.86 7.4 4 6 1024.2 0 18.1 25.8 38.5 100.9 92.5 317.4
05/05 17:30 11.8 74 7.79 7.3 6 7 1024.1 0 17.9 25.6 38.0 99.5 91.0 312.1
05/05 17:20 12.2 73 7.88 7.5 2 6 1024 0 18.1 25.6 38.2 99.9 91.7 314.7
05/05 17:10 12.6 71 7.86 7.5 4 6 1023.9 0 18.1 25.4 37.9 99.2 90.9 312.1
05/05 17:00 12.9 70 7.89 7.6 9 19 1023.8 0 18.1 25.4 37.9 99.1 91.0 312.3
05/05 16:50 13.2 68 7.81 7.4 9 11 1023.8 0 17.9 25.2 37.4 97.9 89.6 307.4
05/05 16:40 13.8 65 7.74 7.3 13 15 1023.8 0 17.7 24.9 36.9 96.4 88.0 302.0
05/05 16:30 14.5 65 8.08 8 9 17 1023.7 0 18.4 25.3 37.9 99.1 91.6 314.6
05/05 16:20 14.3 64 7.86 7.6 9 11 1023.7 0 18.0 25.0 37.1 97.1 89.0 305.4
05/05 16:10 14.5 60 7.46 6.8 7 9 1023.7 0 17.1 24.3 35.4 92.7 83.7 286.8
05/05 16:00 14.4 60 7.42 6.7 11 17 1023.6 0 17.0 24.2 35.3 92.4 83.3 285.4
05/05 15:50 14.7 64 8.06 8 9 9 1023.6 0 18.4 25.2 37.7 98.6 91.1 312.9
05/05 15:40 14.8 65 8.23 8.3 11 15 1023.6 0 18.7 25.4 38.3 100.3 93.2 320.2
05/05 15:30 14.4 67 8.28 8.4 13 19 1023.5 0 18.9 25.6 38.7 101.3 94.3 324.0
05/05 15:20 15 67 8.59 8.9 9 13 1023.6 0 19.5 25.9 39.6 103.8 97.6 335.7
05/05 15:10 15.3 66 8.62 9 15 20 1023.5 0 19.5 25.9 39.6 103.8 97.6 335.8
05/05 15:00 15 66 8.46 8.7 11 19 1023.4 0 19.2 25.7 39.1 102.4 95.9 329.7
05/05 14:50 14.4 69 8.53 8.8 11 15 1023.4 0 19.4 26.0 39.7 104.0 97.5 335.5
05/05 14:40 14 68 8.2 8.2 7 9 1023.3 0 18.7 25.6 38.5 101.0 93.7 322.0
05/05 14:30 14.2 70 8.55 8.8 11 17 1023.2 0 19.5 26.1 39.8 104.4 98.0 337.2
05/05 14:20 14.9 72 9.18 9.9 11 13 1023.2 0 20.8 26.9 42.0 110.3 105.5 363.4
05/05 14:10 14.7 68 8.56 8.9 15 22 1023.2 0 19.4 25.9 39.6 103.9 97.5 335.5
05/05 14:00 14.1 71 8.62 8.9 13 20 1023.1 0 19.6 26.2 40.2 105.3 99.1 340.8
05/05 13:50 15.2 68 8.83 9.3 15 20 1023.1 0 20.0 26.2 40.5 106.1 100.5 345.8
05/05 13:40 15.2 73 9.48 10.4 11 13 1023.1 0 21.4 27.3 43.1 113.1 109.1 376.0
05/05 13:30 14.6 76 9.51 10.4 9 15 1023.1 0 21.5 27.5 43.5 114.3 110.4 380.3
05/05 13:20 14.2 77 9.4 10.2 11 13 1023.3 0 21.3 27.5 43.3 113.7 109.4 377.1
05/05 13:10 14.2 79 9.65 10.6 13 17 1023.4 0 21.8 27.9 44.4 116.5 112.9 389.1
05/05 13:00 14.4 77 9.52 10.4 13 24 1023.4 0 21.5 27.6 43.7 114.7 110.8 381.9
05/05 12:50 14.9 77 9.81 10.9 15 19 1023.5 0 22.1 27.9 44.6 117.2 114.0 393.3
05/05 12:40 15 77 9.87 11 9 13 1023.7 0 22.2 28.0 44.8 117.8 114.7 395.7
05/05 12:30 14.6 83 10.39 11.7 9 15 1023.7 0 23.4 29.0 47.3 124.2 122.6 423.0
05/05 12:20 14 84 10.13 11.3 7 9 1023.9 0 22.8 28.8 46.5 122.2 119.9 413.5
05/05 12:10 14 83 10.01 11.2 11 13 1024.1 0 22.6 28.6 46.0 120.9 118.2 407.7
05/05 12:00 14.3 87 10.69 12.2 9 15 1024.1 0 24.0 29.7 48.8 128.2 127.3 439.6
05/05 11:50 13.3 90 10.4 11.7 7 11 1024.2 0 23.5 29.5 48.1 126.5 124.9 430.8
05/05 11:40 12.7 92 10.24 11.4 11 13 1024.3 0 23.1 29.4 47.8 125.6 123.6 426.2
05/05 11:30 12.5 92 10.12 11.2 9 15 1024.3 0 22.9 29.3 47.4 124.6 122.2 421.3
05/05 11:20 12.3 91 9.88 10.9 11 13 1024.4 0 22.4 28.9 46.5 122.1 119.1 410.4
05/05 11:10 13.2 88 10.1 11.3 11 13 1024.4 0 22.8 29.0 46.9 123.2 120.8 416.5
05/05 11:00 13.4 92 10.7 12.1 7 11 1024.3 0 24.1 30.0 49.4 129.8 129.0 445.3
05/05 10:50 12.5 92 10.12 11.2 9 11 1024.4 0 22.9 29.3 47.4 124.6 122.2 421.3
05/05 10:40 12.6 89 9.85 10.8 11 15 1024.3 0 22.3 28.8 46.2 121.3 118.2 407.3
05/05 10:30 13 91 10.32 11.6 7 15 1024.3 0 23.3 29.5 48.0 126.1 124.2 428.5
05/05 10:20 12.2 92 9.93 10.9 11 15 1024.2 0 22.5 29.1 46.7 122.8 119.9 413.4
05/05 10:10 13 94 10.66 12.1 13 15 1024.1 0 24.0 30.1 49.4 130.0 129.1 445.5
05/05 10:00 12.5 95 10.45 11.7 7 13 1024.1 0 23.6 29.9 48.8 128.4 126.9 437.8
05/05 09:50 12.2 96 10.36 11.6 9 13 1024 0 23.4 29.8 48.6 127.8 126.1 434.9
05/05 09:40 11.4 95 9.75 10.6 9 9 1023.9 0 22.2 29.0 46.4 122.0 118.6 408.5
05/05 09:30 11.6 96 9.98 11 7 9 1023.7 0 22.7 29.3 47.3 124.3 121.5 419.0
05/05 09:20 11.7 97 10.15 11.2 7 9 1023.9 0 23.0 29.6 48.0 126.2 123.8 427.1
05/05 09:10 11.6 97 10.08 11.1 4 6 1023.8 0 22.9 29.5 47.7 125.5 123.0 424.0
05/05 09:00 11.5 97 10.02 11 6 9 1023.7 0 22.7 29.4 47.5 124.9 122.3 421.5
05/05 08:50 11.3 97 9.9 10.8 0 0 1023.8 13 22.5 29.3 47.1 123.9 120.9 416.6
05/05 08:40 11.1 97 9.77 10.6 4 6 1023.7 13 22.2 29.1 46.7 122.6 119.3 411.1
05/05 08:30 11 97 9.71 10.5 6 6 1023.5 13 22.1 29.0 46.5 122.1 118.6 408.5
05/05 08:20 10.9 97 9.65 10.4 2 6 1023.5 13 22.0 29.0 46.3 121.5 117.9 406.0
05/05 08:10 10.6 97 9.47 10.1 0 0 1023.4 12.8 21.6 28.7 45.7 119.9 115.7 398.5
05/05 08:00 10.5 97 9.41 10 0 0 1023.3 12.8 21.5 28.7 45.4 119.3 115.0 396.0
05/05 07:50 10.4 97 9.35 9.9 0 0 1023.3 12.8 21.4 28.6 45.2 118.8 114.3 393.5
05/05 07:40 10.4 97 9.35 9.9 0 0 1023.2 12.8 21.4 28.6 45.2 118.8 114.3 393.5
05/05 07:30 10.1 97 9.17 9.6 0 0 1023.1 12.8 21.0 28.4 44.6 117.1 112.1 386.0
05/05 07:20 9.9 97 9.06 9.4 0 0 1023 12.8 20.8 28.2 44.3 116.1 110.9 381.4
05/05 07:10 9.8 97 9 9.3 0 0 1022.8 12.8 20.6 28.2 44.0 115.6 110.1 378.9
05/05 07:00 9.6 97 8.89 9.1 0 0 1022.5 12.8 20.4 28.0 43.7 114.6 108.8 374.3
05/05 06:50 9.5 97 8.83 9 0 0 1022.5 12.8 20.3 27.9 43.5 114.0 108.1 371.8
05/05 06:40 9.3 97 8.72 8.8 0 0 1022.3 12.6 20.1 27.8 43.1 113.0 106.8 367.2
05/05 06:30 9.1 97 8.61 8.6 0 0 1022.1 12.6 19.8 27.7 42.7 112.0 105.5 362.6
05/05 06:20 9 97 8.55 8.5 0 0 1022 12.6 19.7 27.6 42.5 111.5 104.8 360.1
05/05 06:10 8.9 97 8.5 8.5 0 0 1021.9 12.6 19.6 27.5 42.3 111.0 104.2 358.0

Last Refresh: 05-May-2026 22:39:35

Bureau of Meteorology